sensor_id;sensor_type;location;lat;lon;timestamp;temperature;humidity
27368;DHT22;14839;48.106;11.618;2023-04-15T04:00:13;5.30;94.60
27368;DHT22;14839;48.106;11.618;2023-04-15T04:02:39;5.30;94.60
27368;DHT22;14839;48.106;11.618;2023-04-15T04:05:05;5.30;94.60
27368;DHT22;14839;48.106;11.618;2023-04-15T04:07:31;5.30;94.60
27368;DHT22;14839;48.106;11.618;2023-04-15T04:09:57;5.20;94.60
27368;DHT22;14839;48.106;11.618;2023-04-15T04:12:22;5.20;94.60
27368;DHT22;14839;48.106;11.618;2023-04-15T04:14:48;5.20;94.60
27368;DHT22;14839;48.106;11.618;2023-04-15T04:17:13;5.20;94.60
27368;DHT22;14839;48.106;11.618;2023-04-15T04:19:39;5.20;94.60
27368;DHT22;14839;48.106;11.618;2023-04-15T04:22:05;5.20;94.60
27368;DHT22;14839;48.106;11.618;2023-04-15T04:24:31;5.20;94.60
27368;DHT22;14839;48.106;11.618;2023-04-15T04:26:56;5.20;94.60
27368;DHT22;14839;48.106;11.618;2023-04-15T04:29:22;5.30;94.60
27368;DHT22;14839;48.106;11.618;2023-04-15T04:31:48;5.20;94.60
27368;DHT22;14839;48.106;11.618;2023-04-15T04:34:14;5.20;94.60
27368;DHT22;14839;48.106;11.618;2023-04-15T04:36:40;5.30;94.60
27368;DHT22;14839;48.106;11.618;2023-04-15T04:39:05;5.30;94.60
27368;DHT22;14839;48.106;11.618;2023-04-15T04:41:31;5.30;94.60
27368;DHT22;14839;48.106;11.618;2023-04-15T04:43:57;5.40;94.60
27368;DHT22;14839;48.106;11.618;2023-04-15T04:46:22;5.40;94.60
27368;DHT22;14839;48.106;11.618;2023-04-15T04:48:48;5.40;94.60
27368;DHT22;14839;48.106;11.618;2023-04-15T04:51:14;5.40;94.60
27368;DHT22;14839;48.106;11.618;2023-04-15T04:53:40;5.40;94.60
27368;DHT22;14839;48.106;11.618;2023-04-15T04:56:05;5.40;94.60
27368;DHT22;14839;48.106;11.618;2023-04-15T04:58:31;5.40;94.60
27368;DHT22;14839;48.106;11.618;2023-04-15T05:00:56;5.50;94.60
27368;DHT22;14839;48.106;11.618;2023-04-15T05:03:22;5.50;94.60
27368;DHT22;14839;48.106;11.618;2023-04-15T05:05:48;5.50;94.60
27368;DHT22;14839;48.106;11.618;2023-04-15T05:08:14;5.50;94.60
27368;DHT22;14839;48.106;11.618;2023-04-15T05:10:40;5.60;94.60
27368;DHT22;14839;48.106;11.618;2023-04-15T05:13:06;5.60;94.60
27368;DHT22;14839;48.106;11.618;2023-04-15T05:15:31;5.60;94.60
27368;DHT22;14839;48.106;11.618;2023-04-15T05:17:57;5.60;94.60
27368;DHT22;14839;48.106;11.618;2023-04-15T05:20:23;5.70;94.60
27368;DHT22;14839;48.106;11.618;2023-04-15T05:22:48;5.70;94.60
27368;DHT22;14839;48.106;11.618;2023-04-15T05:25:14;5.70;94.60
27368;DHT22;14839;48.106;11.618;2023-04-15T05:27:39;5.70;94.60
27368;DHT22;14839;48.106;11.618;2023-04-15T05:30:05;5.80;94.60
27368;DHT22;14839;48.106;11.618;2023-04-15T05:32:31;5.80;94.60
27368;DHT22;14839;48.106;11.618;2023-04-15T05:34:57;5.90;94.60
27368;DHT22;14839;48.106;11.618;2023-04-15T05:37:22;5.90;94.60
27368;DHT22;14839;48.106;11.618;2023-04-15T05:39:48;5.90;94.60
27368;DHT22;14839;48.106;11.618;2023-04-15T05:42:14;5.90;94.60
27368;DHT22;14839;48.106;11.618;2023-04-15T05:44:39;5.90;94.60
27368;DHT22;14839;48.106;11.618;2023-04-15T05:47:05;6.00;94.60
27368;DHT22;14839;48.106;11.618;2023-04-15T05:49:32;6.00;94.60
27368;DHT22;14839;48.106;11.618;2023-04-15T05:51:57;5.90;94.60
27368;DHT22;14839;48.106;11.618;2023-04-15T05:54:23;6.00;94.60
27368;DHT22;14839;48.106;11.618;2023-04-15T05:56:49;6.10;94.60
27368;DHT22;14839;48.106;11.618;2023-04-15T05:59:14;6.10;94.60
27368;DHT22;14839;48.106;11.618;2023-04-15T06:01:40;6.20;94.60
27368;DHT22;14839;48.106;11.618;2023-04-15T06:04:06;6.10;94.60
27368;DHT22;14839;48.106;11.618;2023-04-15T06:06:31;6.20;94.60
27368;DHT22;14839;48.106;11.618;2023-04-15T06:08:57;6.30;94.60
27368;DHT22;14839;48.106;11.618;2023-04-15T06:11:23;6.20;94.60
27368;DHT22;14839;48.106;11.618;2023-04-15T06:13:48;6.20;94.60
27368;DHT22;14839;48.106;11.618;2023-04-15T06:16:14;6.30;94.60
27368;DHT22;14839;48.106;11.618;2023-04-15T06:18:40;6.30;94.60
27368;DHT22;14839;48.106;11.618;2023-04-15T06:21:05;6.30;94.60
27368;DHT22;14839;48.106;11.618;2023-04-15T06:23:33;6.40;94.60
27368;DHT22;14839;48.106;11.618;2023-04-15T06:25:59;6.50;94.60
27368;DHT22;14839;48.106;11.618;2023-04-15T06:28:25;6.50;94.60
27368;DHT22;14839;48.106;11.618;2023-04-15T06:30:52;6.60;94.60
27368;DHT22;14839;48.106;11.618;2023-04-15T06:33:17;6.60;94.60
27368;DHT22;14839;48.106;11.618;2023-04-15T06:35:43;6.70;94.60
27368;DHT22;14839;48.106;11.618;2023-04-15T06:38:08;6.80;94.60
27368;DHT22;14839;48.106;11.618;2023-04-15T06:40:34;6.90;94.60
27368;DHT22;14839;48.106;11.618;2023-04-15T06:43:00;6.90;94.60
27368;DHT22;14839;48.106;11.618;2023-04-15T06:45:26;7.00;94.60
27368;DHT22;14839;48.106;11.618;2023-04-15T06:47:51;7.10;94.60
27368;DHT22;14839;48.106;11.618;2023-04-15T06:50:17;7.20;94.60
27368;DHT22;14839;48.106;11.618;2023-04-15T06:52:43;7.40;94.60
27368;DHT22;14839;48.106;11.618;2023-04-15T06:55:08;7.60;94.60
27368;DHT22;14839;48.106;11.618;2023-04-15T06:57:34;7.70;94.60
27368;DHT22;14839;48.106;11.618;2023-04-15T07:00:00;7.70;94.30
27368;DHT22;14839;48.106;11.618;2023-04-15T07:02:25;7.80;94.20
27368;DHT22;14839;48.106;11.618;2023-04-15T07:04:51;7.90;94.30
27368;DHT22;14839;48.106;11.618;2023-04-15T07:07:17;8.00;93.40
27368;DHT22;14839;48.106;11.618;2023-04-15T07:09:43;8.10;94.10
27368;DHT22;14839;48.106;11.618;2023-04-15T07:12:08;8.20;93.50
27368;DHT22;14839;48.106;11.618;2023-04-15T07:14:34;8.30;93.70
27368;DHT22;14839;48.106;11.618;2023-04-15T07:17:00;8.60;93.90
27368;DHT22;14839;48.106;11.618;2023-04-15T07:19:26;8.90;92.40
27368;DHT22;14839;48.106;11.618;2023-04-15T07:21:52;9.20;91.40
27368;DHT22;14839;48.106;11.618;2023-04-15T07:24:17;9.40;90.10
27368;DHT22;14839;48.106;11.618;2023-04-15T07:26:44;9.60;87.70
27368;DHT22;14839;48.106;11.618;2023-04-15T07:29:10;9.60;86.90
27368;DHT22;14839;48.106;11.618;2023-04-15T07:31:36;9.60;86.00
27368;DHT22;14839;48.106;11.618;2023-04-15T07:34:02;9.60;88.10
27368;DHT22;14839;48.106;11.618;2023-04-15T07:36:28;9.90;88.00
27368;DHT22;14839;48.106;11.618;2023-04-15T07:38:54;10.20;86.30
27368;DHT22;14839;48.106;11.618;2023-04-15T07:41:20;10.50;86.30
27368;DHT22;14839;48.106;11.618;2023-04-15T07:43:46;10.50;83.20
27368;DHT22;14839;48.106;11.618;2023-04-15T07:46:13;10.50;82.40
27368;DHT22;14839;48.106;11.618;2023-04-15T07:48:38;10.60;84.20
27368;DHT22;14839;48.106;11.618;2023-04-15T07:51:04;10.50;83.60
27368;DHT22;14839;48.106;11.618;2023-04-15T07:53:30;10.60;82.90
27368;DHT22;14839;48.106;11.618;2023-04-15T07:55:57;11.10;85.00
27368;DHT22;14839;48.106;11.618;2023-04-15T07:58:23;11.40;82.00
27368;DHT22;14839;48.106;11.618;2023-04-15T08:00:48;11.50;81.70
27368;DHT22;14839;48.106;11.618;2023-04-15T08:03:14;11.70;78.70
27368;DHT22;14839;48.106;11.618;2023-04-15T08:05:40;11.90;79.10
27368;DHT22;14839;48.106;11.618;2023-04-15T08:08:06;12.20;77.00
27368;DHT22;14839;48.106;11.618;2023-04-15T08:10:31;12.60;79.70
27368;DHT22;14839;48.106;11.618;2023-04-15T08:12:57;13.00;75.80
27368;DHT22;14839;48.106;11.618;2023-04-15T08:15:23;13.20;74.80
27368;DHT22;14839;48.106;11.618;2023-04-15T08:17:48;13.60;73.10
27368;DHT22;14839;48.106;11.618;2023-04-15T08:20:14;14.00;71.90
27368;DHT22;14839;48.106;11.618;2023-04-15T08:22:39;14.00;70.60
27368;DHT22;14839;48.106;11.618;2023-04-15T08:25:06;14.10;69.10
27368;DHT22;14839;48.106;11.618;2023-04-15T08:27:31;14.00;69.20
27368;DHT22;14839;48.106;11.618;2023-04-15T08:29:57;13.80;70.90
27368;DHT22;14839;48.106;11.618;2023-04-15T08:32:22;13.60;71.20
27368;DHT22;14839;48.106;11.618;2023-04-15T08:34:50;13.40;71.00
27368;DHT22;14839;48.106;11.618;2023-04-15T08:37:15;13.10;71.80
27368;DHT22;14839;48.106;11.618;2023-04-15T08:39:41;12.60;73.60
27368;DHT22;14839;48.106;11.618;2023-04-15T08:42:11;12.30;74.20
27368;DHT22;14839;48.106;11.618;2023-04-15T08:44:41;12.10;75.20
27368;DHT22;14839;48.106;11.618;2023-04-15T08:47:07;12.00;76.30
27368;DHT22;14839;48.106;11.618;2023-04-15T08:49:38;12.10;77.80
27368;DHT22;14839;48.106;11.618;2023-04-15T08:52:04;11.90;76.60
27368;DHT22;14839;48.106;11.618;2023-04-15T08:54:30;11.80;75.80
27368;DHT22;14839;48.106;11.618;2023-04-15T08:56:57;11.80;76.60
27368;DHT22;14839;48.106;11.618;2023-04-15T08:59:23;11.70;77.30
27368;DHT22;14839;48.106;11.618;2023-04-15T09:01:49;11.40;78.10
27368;DHT22;14839;48.106;11.618;2023-04-15T09:04:18;11.40;77.80
27368;DHT22;14839;48.106;11.618;2023-04-15T09:06:43;11.60;77.60
27368;DHT22;14839;48.106;11.618;2023-04-15T09:09:10;11.70;77.60
27368;DHT22;14839;48.106;11.618;2023-04-15T09:11:36;11.70;76.60
27368;DHT22;14839;48.106;11.618;2023-04-15T09:14:02;11.50;77.00
27368;DHT22;14839;48.106;11.618;2023-04-15T09:16:28;11.40;77.60
27368;DHT22;14839;48.106;11.618;2023-04-15T09:18:53;11.60;79.60
27368;DHT22;14839;48.106;11.618;2023-04-15T09:21:19;11.70;77.00
27368;DHT22;14839;48.106;11.618;2023-04-15T09:23:57;11.60;75.80
27368;DHT22;14839;48.106;11.618;2023-04-15T09:26:36;11.50;77.80
27368;DHT22;14839;48.106;11.618;2023-04-15T09:29:08;11.70;77.30
27368;DHT22;14839;48.106;11.618;2023-04-15T09:31:35;11.70;77.50
27368;DHT22;14839;48.106;11.618;2023-04-15T09:34:01;12.00;77.00
27368;DHT22;14839;48.106;11.618;2023-04-15T09:36:27;12.10;74.20
27368;DHT22;14839;48.106;11.618;2023-04-15T09:38:56;12.20;75.10
27368;DHT22;14839;48.106;11.618;2023-04-15T09:41:21;12.10;73.70
27368;DHT22;14839;48.106;11.618;2023-04-15T09:43:47;12.00;76.30
27368;DHT22;14839;48.106;11.618;2023-04-15T09:46:13;11.90;77.30
27368;DHT22;14839;48.106;11.618;2023-04-15T09:48:38;12.00;77.30
27368;DHT22;14839;48.106;11.618;2023-04-15T09:51:04;12.10;75.40
27368;DHT22;14839;48.106;11.618;2023-04-15T09:53:33;12.20;74.00
27368;DHT22;14839;48.106;11.618;2023-04-15T09:55:59;12.30;74.90
27368;DHT22;14839;48.106;11.618;2023-04-15T09:58:28;12.10;77.00
27368;DHT22;14839;48.106;11.618;2023-04-15T10:00:56;12.10;75.70
27368;DHT22;14839;48.106;11.618;2023-04-15T10:03:27;11.90;77.30
27368;DHT22;14839;48.106;11.618;2023-04-15T10:05:54;11.80;77.20
27368;DHT22;14839;48.106;11.618;2023-04-15T10:08:22;11.60;77.90
27368;DHT22;14839;48.106;11.618;2023-04-15T10:10:49;11.30;78.10
27368;DHT22;14839;48.106;11.618;2023-04-15T10:13:21;11.10;79.70
27368;DHT22;14839;48.106;11.618;2023-04-15T10:15:50;10.90;79.10
27368;DHT22;14839;48.106;11.618;2023-04-15T10:18:19;10.90;80.20
27368;DHT22;14839;48.106;11.618;2023-04-15T10:20:47;11.10;81.20
27368;DHT22;14839;48.106;11.618;2023-04-15T10:23:14;11.30;80.60
27368;DHT22;14839;48.106;11.618;2023-04-15T10:25:40;11.30;78.10
27368;DHT22;14839;48.106;11.618;2023-04-15T10:28:06;11.00;77.50
27368;DHT22;14839;48.106;11.618;2023-04-15T10:30:38;10.90;79.30
27368;DHT22;14839;48.106;11.618;2023-04-15T10:33:09;11.00;80.60
27368;DHT22;14839;48.106;11.618;2023-04-15T10:35:35;11.10;80.00
27368;DHT22;14839;48.106;11.618;2023-04-15T10:38:02;11.10;79.40
27368;DHT22;14839;48.106;11.618;2023-04-15T10:40:53;11.20;78.70
27368;DHT22;14839;48.106;11.618;2023-04-15T10:43:26;11.20;77.90
27368;DHT22;14839;48.106;11.618;2023-04-15T10:45:52;11.20;78.20
27368;DHT22;14839;48.106;11.618;2023-04-15T10:48:18;11.30;78.80
27368;DHT22;14839;48.106;11.618;2023-04-15T10:50:55;11.40;77.90
27368;DHT22;14839;48.106;11.618;2023-04-15T10:53:28;11.60;77.90
27368;DHT22;14839;48.106;11.618;2023-04-15T10:55:53;11.80;77.30
27368;DHT22;14839;48.106;11.618;2023-04-15T10:58:23;12.00;75.40
27368;DHT22;14839;48.106;11.618;2023-04-15T11:00:50;12.10;75.70
27368;DHT22;14839;48.106;11.618;2023-04-15T11:03:39;12.20;76.70
27368;DHT22;14839;48.106;11.618;2023-04-15T11:06:07;12.30;74.80
27368;DHT22;14839;48.106;11.618;2023-04-15T11:08:59;12.20;76.00
27368;DHT22;14839;48.106;11.618;2023-04-15T11:12:05;12.10;75.70
27368;DHT22;14839;48.106;11.618;2023-04-15T11:14:33;11.90;75.80
27368;DHT22;14839;48.106;11.618;2023-04-15T11:17:00;11.80;74.80
27368;DHT22;14839;48.106;11.618;2023-04-15T11:19:26;11.80;75.40
27368;DHT22;14839;48.106;11.618;2023-04-15T11:22:06;11.80;75.70
27368;DHT22;14839;48.106;11.618;2023-04-15T11:24:32;11.80;77.00
27368;DHT22;14839;48.106;11.618;2023-04-15T11:27:01;11.80;76.30
27368;DHT22;14839;48.106;11.618;2023-04-15T11:29:30;11.90;76.90
27368;DHT22;14839;48.106;11.618;2023-04-15T11:32:17;11.80;75.50
27368;DHT22;14839;48.106;11.618;2023-04-15T11:34:45;11.70;75.50
27368;DHT22;14839;48.106;11.618;2023-04-15T11:37:10;11.50;76.40
27368;DHT22;14839;48.106;11.618;2023-04-15T11:39:37;11.40;77.00
27368;DHT22;14839;48.106;11.618;2023-04-15T11:42:15;11.10;78.40
27368;DHT22;14839;48.106;11.618;2023-04-15T11:44:41;10.80;80.60
27368;DHT22;14839;48.106;11.618;2023-04-15T11:47:23;10.60;80.30
27368;DHT22;14839;48.106;11.618;2023-04-15T11:49:49;10.40;82.40
27368;DHT22;14839;48.106;11.618;2023-04-15T11:52:17;10.30;85.70
27368;DHT22;14839;48.106;11.618;2023-04-15T11:55:02;10.20;86.90
27368;DHT22;14839;48.106;11.618;2023-04-15T11:57:31;10.40;88.10
27368;DHT22;14839;48.106;11.618;2023-04-15T11:59:56;10.40;87.40
27368;DHT22;14839;48.106;11.618;2023-04-15T12:02:30;10.40;84.80
27368;DHT22;14839;48.106;11.618;2023-04-15T12:05:07;10.40;85.30
27368;DHT22;14839;48.106;11.618;2023-04-15T12:07:32;10.20;85.40
27368;DHT22;14839;48.106;11.618;2023-04-15T12:09:59;10.20;86.90
27368;DHT22;14839;48.106;11.618;2023-04-15T12:12:27;10.40;87.20
27368;DHT22;14839;48.106;11.618;2023-04-15T12:14:55;10.50;89.60
27368;DHT22;14839;48.106;11.618;2023-04-15T12:17:22;10.40;86.20
27368;DHT22;14839;48.106;11.618;2023-04-15T12:19:48;10.50;85.90
27368;DHT22;14839;48.106;11.618;2023-04-15T12:22:15;10.50;82.10
27368;DHT22;14839;48.106;11.618;2023-04-15T12:24:42;10.50;82.60
27368;DHT22;14839;48.106;11.618;2023-04-15T12:27:12;10.60;82.90
27368;DHT22;14839;48.106;11.618;2023-04-15T12:29:39;10.60;83.20
27368;DHT22;14839;48.106;11.618;2023-04-15T12:32:09;10.60;83.50
27368;DHT22;14839;48.106;11.618;2023-04-15T12:34:55;10.70;82.90
27368;DHT22;14839;48.106;11.618;2023-04-15T12:37:22;10.80;81.10
27368;DHT22;14839;48.106;11.618;2023-04-15T12:39:49;10.90;81.80
27368;DHT22;14839;48.106;11.618;2023-04-15T12:42:18;11.10;80.30
27368;DHT22;14839;48.106;11.618;2023-04-15T12:44:43;11.10;79.00
27368;DHT22;14839;48.106;11.618;2023-04-15T12:49:11;11.30;79.90
27368;DHT22;14839;48.106;11.618;2023-04-15T12:51:39;11.20;79.10
27368;DHT22;14839;48.106;11.618;2023-04-15T12:54:04;11.30;81.10
27368;DHT22;14839;48.106;11.618;2023-04-15T12:56:31;11.20;78.50
27368;DHT22;14839;48.106;11.618;2023-04-15T12:58:56;11.10;78.20
27368;DHT22;14839;48.106;11.618;2023-04-15T13:01:22;11.00;78.70
27368;DHT22;14839;48.106;11.618;2023-04-15T13:03:48;11.00;78.40
27368;DHT22;14839;48.106;11.618;2023-04-15T13:06:15;10.90;78.80
27368;DHT22;14839;48.106;11.618;2023-04-15T13:08:42;10.80;76.40
27368;DHT22;14839;48.106;11.618;2023-04-15T13:11:08;10.50;75.70
27368;DHT22;14839;48.106;11.618;2023-04-15T13:13:34;10.50;76.90
27368;DHT22;14839;48.106;11.618;2023-04-15T13:16:00;10.50;77.20
27368;DHT22;14839;48.106;11.618;2023-04-15T13:18:25;10.50;76.70
27368;DHT22;14839;48.106;11.618;2023-04-15T13:20:51;10.40;76.30
27368;DHT22;14839;48.106;11.618;2023-04-15T13:23:17;10.40;75.50
27368;DHT22;14839;48.106;11.618;2023-04-15T13:25:42;10.40;75.20
27368;DHT22;14839;48.106;11.618;2023-04-15T13:28:10;10.20;74.20
27368;DHT22;14839;48.106;11.618;2023-04-15T13:30:37;10.20;73.30
27368;DHT22;14839;48.106;11.618;2023-04-15T13:33:03;10.10;74.20
27368;DHT22;14839;48.106;11.618;2023-04-15T13:35:30;10.10;76.70
27368;DHT22;14839;48.106;11.618;2023-04-15T13:37:56;10.10;78.10
27368;DHT22;14839;48.106;11.618;2023-04-15T13:40:22;10.10;79.00
27368;DHT22;14839;48.106;11.618;2023-04-15T13:42:47;10.10;78.70
27368;DHT22;14839;48.106;11.618;2023-04-15T13:45:13;10.20;78.10
27368;DHT22;14839;48.106;11.618;2023-04-15T13:47:39;10.20;79.10
27368;DHT22;14839;48.106;11.618;2023-04-15T13:50:05;10.30;79.60
27368;DHT22;14839;48.106;11.618;2023-04-15T13:52:31;10.30;79.10
27368;DHT22;14839;48.106;11.618;2023-04-15T13:54:57;10.30;79.60
27368;DHT22;14839;48.106;11.618;2023-04-15T13:57:22;10.30;79.90
27368;DHT22;14839;48.106;11.618;2023-04-15T13:59:48;10.20;81.40
27368;DHT22;14839;48.106;11.618;2023-04-15T14:02:14;10.00;81.10
27368;DHT22;14839;48.106;11.618;2023-04-15T14:04:39;9.90;83.00
27368;DHT22;14839;48.106;11.618;2023-04-15T14:07:05;9.60;84.40
27368;DHT22;14839;48.106;11.618;2023-04-15T14:09:30;9.60;85.40
27368;DHT22;14839;48.106;11.618;2023-04-15T14:11:56;9.60;86.80
27368;DHT22;14839;48.106;11.618;2023-04-15T14:14:24;9.60;85.70
27368;DHT22;14839;48.106;11.618;2023-04-15T14:16:49;9.70;84.20
27368;DHT22;14839;48.106;11.618;2023-04-15T14:20:07;9.70;84.70
27368;DHT22;14839;48.106;11.618;2023-04-15T14:22:32;9.70;85.00
27368;DHT22;14839;48.106;11.618;2023-04-15T14:24:58;9.80;84.70
27368;DHT22;14839;48.106;11.618;2023-04-15T14:27:25;10.00;83.60
27368;DHT22;14839;48.106;11.618;2023-04-15T14:29:51;10.10;82.60
27368;DHT22;14839;48.106;11.618;2023-04-15T14:32:18;10.10;82.60
27368;DHT22;14839;48.106;11.618;2023-04-15T14:34:44;10.20;81.80
27368;DHT22;14839;48.106;11.618;2023-04-15T14:37:09;10.10;79.40
27368;DHT22;14839;48.106;11.618;2023-04-15T14:39:35;10.20;79.10
27368;DHT22;14839;48.106;11.618;2023-04-15T14:42:01;10.10;79.00
27368;DHT22;14839;48.106;11.618;2023-04-15T14:44:26;10.10;81.10
27368;DHT22;14839;48.106;11.618;2023-04-15T14:46:58;10.10;78.80
27368;DHT22;14839;48.106;11.618;2023-04-15T14:49:51;9.90;77.60
27368;DHT22;14839;48.106;11.618;2023-04-15T14:52:17;10.00;78.80
27368;DHT22;14839;48.106;11.618;2023-04-15T14:54:42;9.90;79.40
27368;DHT22;14839;48.106;11.618;2023-04-15T14:57:08;9.90;79.10
27368;DHT22;14839;48.106;11.618;2023-04-15T14:59:34;9.80;79.10
27368;DHT22;14839;48.106;11.618;2023-04-15T15:01:59;10.00;80.80
27368;DHT22;14839;48.106;11.618;2023-04-15T15:04:36;10.00;79.10
27368;DHT22;14839;48.106;11.618;2023-04-15T15:07:02;10.00;79.70
27368;DHT22;14839;48.106;11.618;2023-04-15T15:09:28;9.90;80.50
27368;DHT22;14839;48.106;11.618;2023-04-15T15:11:54;9.90;80.90
27368;DHT22;14839;48.106;11.618;2023-04-15T15:14:21;10.00;80.60
27368;DHT22;14839;48.106;11.618;2023-04-15T15:16:46;10.00;82.00
27368;DHT22;14839;48.106;11.618;2023-04-15T15:19:12;9.80;82.90
27368;DHT22;14839;48.106;11.618;2023-04-15T15:21:38;9.60;84.10
27368;DHT22;14839;48.106;11.618;2023-04-15T15:24:04;9.40;85.90
27368;DHT22;14839;48.106;11.618;2023-04-15T15:26:29;9.30;88.00
27368;DHT22;14839;48.106;11.618;2023-04-15T15:28:55;9.20;89.20
27368;DHT22;14839;48.106;11.618;2023-04-15T15:31:20;9.20;89.60
27368;DHT22;14839;48.106;11.618;2023-04-15T15:33:46;9.10;90.40
27368;DHT22;14839;48.106;11.618;2023-04-15T15:36:11;8.90;90.90
27368;DHT22;14839;48.106;11.618;2023-04-15T15:38:39;8.90;92.00
27368;DHT22;14839;48.106;11.618;2023-04-15T15:41:05;8.70;92.50
27368;DHT22;14839;48.106;11.618;2023-04-15T15:43:30;8.60;93.30
27368;DHT22;14839;48.106;11.618;2023-04-15T15:45:56;8.40;93.30
27368;DHT22;14839;48.106;11.618;2023-04-15T15:48:22;8.40;94.20
27368;DHT22;14839;48.106;11.618;2023-04-15T15:50:48;8.40;94.60
27368;DHT22;14839;48.106;11.618;2023-04-15T15:53:14;8.30;94.60
27368;DHT22;14839;48.106;11.618;2023-04-15T15:55:45;8.20;94.60
27368;DHT22;14839;48.106;11.618;2023-04-15T15:58:11;8.10;94.60
27368;DHT22;14839;48.106;11.618;2023-04-15T16:00:37;8.00;94.60
27368;DHT22;14839;48.106;11.618;2023-04-15T16:03:03;8.00;94.60
27368;DHT22;14839;48.106;11.618;2023-04-15T16:05:29;8.00;94.60
27368;DHT22;14839;48.106;11.618;2023-04-15T16:07:54;8.10;94.60
27368;DHT22;14839;48.106;11.618;2023-04-15T16:10:20;8.00;94.60
27368;DHT22;14839;48.106;11.618;2023-04-15T16:12:46;8.00;94.60
27368;DHT22;14839;48.106;11.618;2023-04-15T16:15:12;8.00;94.60
27368;DHT22;14839;48.106;11.618;2023-04-15T16:17:37;7.90;94.60
27368;DHT22;14839;48.106;11.618;2023-04-15T16:20:03;7.90;94.60
27368;DHT22;14839;48.106;11.618;2023-04-15T16:22:33;8.00;94.60
27368;DHT22;14839;48.106;11.618;2023-04-15T16:24:59;8.00;94.60
27368;DHT22;14839;48.106;11.618;2023-04-15T16:27:26;8.10;94.60
27368;DHT22;14839;48.106;11.618;2023-04-15T16:29:51;8.00;94.60
27368;DHT22;14839;48.106;11.618;2023-04-15T16:32:17;8.00;94.60
27368;DHT22;14839;48.106;11.618;2023-04-15T16:34:43;8.00;94.60
27368;DHT22;14839;48.106;11.618;2023-04-15T16:37:08;8.00;94.60
27368;DHT22;14839;48.106;11.618;2023-04-15T16:39:34;8.00;94.60
27368;DHT22;14839;48.106;11.618;2023-04-15T16:42:01;8.00;94.60
27368;DHT22;14839;48.106;11.618;2023-04-15T16:44:27;7.90;94.60
27368;DHT22;14839;48.106;11.618;2023-04-15T16:46:52;7.80;94.60
27368;DHT22;14839;48.106;11.618;2023-04-15T16:49:18;7.70;94.60
27368;DHT22;14839;48.106;11.618;2023-04-15T16:51:44;7.70;94.60
27368;DHT22;14839;48.106;11.618;2023-04-15T16:54:10;7.70;94.60
27368;DHT22;14839;48.106;11.618;2023-04-15T16:56:36;7.80;94.60
27368;DHT22;14839;48.106;11.618;2023-04-15T16:59:01;7.70;94.60
27368;DHT22;14839;48.106;11.618;2023-04-15T17:01:27;7.70;94.60
27368;DHT22;14839;48.106;11.618;2023-04-15T17:03:53;7.60;94.60
27368;DHT22;14839;48.106;11.618;2023-04-15T17:06:18;7.60;94.60
27368;DHT22;14839;48.106;11.618;2023-04-15T17:08:44;7.50;94.60
27368;DHT22;14839;48.106;11.618;2023-04-15T17:11:10;7.50;94.60
27368;DHT22;14839;48.106;11.618;2023-04-15T17:13:36;7.40;94.60
27368;DHT22;14839;48.106;11.618;2023-04-15T17:16:02;7.30;94.60
27368;DHT22;14839;48.106;11.618;2023-04-15T17:18:28;7.30;94.60
27368;DHT22;14839;48.106;11.618;2023-04-15T17:20:56;7.20;94.60
27368;DHT22;14839;48.106;11.618;2023-04-15T17:23:23;7.10;94.60
27368;DHT22;14839;48.106;11.618;2023-04-15T17:25:48;7.20;94.60
27368;DHT22;14839;48.106;11.618;2023-04-15T17:28:16;7.10;94.60
27368;DHT22;14839;48.106;11.618;2023-04-15T17:30:41;7.10;94.60
27368;DHT22;14839;48.106;11.618;2023-04-15T17:33:07;7.00;94.60
27368;DHT22;14839;48.106;11.618;2023-04-15T17:35:33;7.00;94.60
27368;DHT22;14839;48.106;11.618;2023-04-15T17:37:58;7.00;94.60
27368;DHT22;14839;48.106;11.618;2023-04-15T17:40:24;6.90;94.60
27368;DHT22;14839;48.106;11.618;2023-04-15T17:42:49;7.00;94.60
27368;DHT22;14839;48.106;11.618;2023-04-15T17:45:15;6.90;94.60
27368;DHT22;14839;48.106;11.618;2023-04-15T17:47:41;6.90;94.60
27368;DHT22;14839;48.106;11.618;2023-04-15T17:50:07;6.90;94.60
27368;DHT22;14839;48.106;11.618;2023-04-15T17:52:33;6.90;94.60
27368;DHT22;14839;48.106;11.618;2023-04-15T17:54:59;6.90;94.60
27368;DHT22;14839;48.106;11.618;2023-04-15T17:57:24;6.80;94.60
27368;DHT22;14839;48.106;11.618;2023-04-15T17:59:50;6.70;94.60
27368;DHT22;14839;48.106;11.618;2023-04-15T18:02:16;6.70;94.60
27368;DHT22;14839;48.106;11.618;2023-04-15T18:04:42;6.70;94.60
27368;DHT22;14839;48.106;11.618;2023-04-15T18:07:08;6.70;94.60
27368;DHT22;14839;48.106;11.618;2023-04-15T18:09:34;6.60;94.60
27368;DHT22;14839;48.106;11.618;2023-04-15T18:12:00;6.60;94.60
27368;DHT22;14839;48.106;11.618;2023-04-15T18:14:26;6.60;94.60
27368;DHT22;14839;48.106;11.618;2023-04-15T18:16:52;6.50;94.60
27368;DHT22;14839;48.106;11.618;2023-04-15T18:19:17;6.50;94.60
27368;DHT22;14839;48.106;11.618;2023-04-15T18:21:44;6.50;94.60
27368;DHT22;14839;48.106;11.618;2023-04-15T18:24:10;6.50;94.60
27368;DHT22;14839;48.106;11.618;2023-04-15T18:26:35;6.50;94.60
27368;DHT22;14839;48.106;11.618;2023-04-15T18:29:01;6.40;94.60
27368;DHT22;14839;48.106;11.618;2023-04-15T18:31:27;6.40;94.60
27368;DHT22;14839;48.106;11.618;2023-04-15T18:33:52;6.40;94.60
27368;DHT22;14839;48.106;11.618;2023-04-15T18:36:18;6.40;94.60
27368;DHT22;14839;48.106;11.618;2023-04-15T18:38:44;6.40;94.60
27368;DHT22;14839;48.106;11.618;2023-04-15T18:41:10;6.50;94.60
27368;DHT22;14839;48.106;11.618;2023-04-15T18:43:36;6.50;94.60
27368;DHT22;14839;48.106;11.618;2023-04-15T18:46:01;6.50;94.60
27368;DHT22;14839;48.106;11.618;2023-04-15T18:48:32;6.40;94.60
27368;DHT22;14839;48.106;11.618;2023-04-15T18:50:58;6.50;94.60
27368;DHT22;14839;48.106;11.618;2023-04-15T18:53:23;6.40;94.60
27368;DHT22;14839;48.106;11.618;2023-04-15T18:55:49;6.40;94.60
27368;DHT22;14839;48.106;11.618;2023-04-15T18:58:14;6.40;94.60
27368;DHT22;14839;48.106;11.618;2023-04-15T19:00:41;6.40;94.60
27368;DHT22;14839;48.106;11.618;2023-04-15T19:03:08;6.40;94.60
27368;DHT22;14839;48.106;11.618;2023-04-15T19:05:34;6.40;94.60
27368;DHT22;14839;48.106;11.618;2023-04-15T19:08:00;6.40;94.60
27368;DHT22;14839;48.106;11.618;2023-04-15T19:10:26;6.40;94.60
27368;DHT22;14839;48.106;11.618;2023-04-15T19:12:53;6.40;94.60
27368;DHT22;14839;48.106;11.618;2023-04-15T19:15:18;6.40;94.60
27368;DHT22;14839;48.106;11.618;2023-04-15T19:17:44;6.30;94.60
27368;DHT22;14839;48.106;11.618;2023-04-15T19:20:10;6.40;94.60
27368;DHT22;14839;48.106;11.618;2023-04-15T19:22:36;6.40;94.60
27368;DHT22;14839;48.106;11.618;2023-04-15T19:25:02;6.50;94.60